createdAt,value
2022-10-05T00:00:18.350Z,100866.38
2022-10-05T00:02:46.603Z,100870.75
2022-10-05T00:05:35.121Z,100871.59
2022-10-05T00:08:17.536Z,100864.44
2022-10-05T00:10:45.118Z,100870.53
2022-10-05T00:13:18.835Z,100875.03
2022-10-05T00:15:45.750Z,100873.38
2022-10-05T00:18:15.538Z,100877.97
2022-10-05T00:20:44.172Z,100875.41
2022-10-05T00:23:21.303Z,100875.31
2022-10-05T00:25:47.941Z,100870.22
2022-10-05T00:28:18.593Z,100879.06
2022-10-05T00:30:45.237Z,100874.88
2022-10-05T00:33:11.676Z,100875.81
2022-10-05T00:35:38.527Z,100879.63
2022-10-05T00:38:28.422Z,100881.44
2022-10-05T00:41:22.887Z,100886.19
2022-10-05T00:44:36.695Z,100881.06
2022-10-05T00:47:49.441Z,100888.97
2022-10-05T00:50:59.131Z,100882.13
2022-10-05T00:54:02.300Z,100873.56
2022-10-05T00:56:51.290Z,100871.00
2022-10-05T00:59:36.776Z,100864.22
2022-10-05T01:02:06.617Z,100866.16
2022-10-05T01:05:10.861Z,100861.75
2022-10-05T01:08:03.252Z,100849.69
2022-10-05T01:10:51.664Z,100839.50
2022-10-05T01:13:27.301Z,100837.66
2022-10-05T01:16:31.465Z,100833.31
2022-10-05T01:19:37.327Z,100840.44
2022-10-05T01:22:06.729Z,100842.06
2022-10-05T01:24:50.327Z,100838.56
2022-10-05T01:27:33.796Z,100842.28
2022-10-05T01:30:08.624Z,100835.19
2022-10-05T01:32:50.214Z,100836.22
2022-10-05T01:35:37.217Z,100831.16
2022-10-05T01:38:13.975Z,100839.00
2022-10-05T01:40:57.063Z,100845.03
2022-10-05T01:43:26.512Z,100839.84
2022-10-05T01:46:14.043Z,100849.41
2022-10-05T01:49:05.311Z,100853.88
2022-10-05T01:51:34.873Z,100850.59
2022-10-05T01:54:04.812Z,100841.88
2022-10-05T01:56:50.575Z,100839.38
2022-10-05T01:59:18.727Z,100840.22
2022-10-05T02:01:55.242Z,100841.97
2022-10-05T02:05:00.295Z,100843.00
2022-10-05T02:07:29.335Z,100842.91
2022-10-05T02:10:05.827Z,100850.75
2022-10-05T02:12:37.377Z,100850.84
2022-10-05T02:15:19.998Z,100841.28
2022-10-05T02:17:48.810Z,100850.03
2022-10-05T02:20:23.837Z,100845.69
2022-10-05T02:22:53.611Z,100839.59
2022-10-05T02:25:28.863Z,100834.63
2022-10-05T02:28:04.732Z,100829.41
2022-10-05T02:30:38.013Z,100818.94
2022-10-05T02:33:10.475Z,100812.19
2022-10-05T02:35:37.291Z,100811.38
2022-10-05T02:38:16.998Z,100807.16
2022-10-05T02:41:02.773Z,100803.84
2022-10-05T02:44:24.572Z,100792.69
2022-10-05T02:47:29.632Z,100784.00
2022-10-05T02:50:24.811Z,100778.03
2022-10-05T02:52:59.790Z,100785.81
2022-10-05T02:55:46.292Z,100791.00
2022-10-05T02:58:16.146Z,100788.22
2022-10-05T03:00:56.104Z,100787.34
2022-10-05T03:03:38.660Z,100787.50
2022-10-05T03:06:16.198Z,100783.06
2022-10-05T03:09:02.559Z,100779.00
2022-10-05T03:11:34.414Z,100778.19
2022-10-05T03:14:26.231Z,100772.16
2022-10-05T03:17:18.142Z,100766.13
2022-10-05T03:20:22.084Z,100765.22
2022-10-05T03:23:02.029Z,100760.06
2022-10-05T03:25:54.172Z,100749.00
2022-10-05T03:28:33.234Z,100746.41
2022-10-05T03:31:06.038Z,100753.03
2022-10-05T03:33:46.618Z,100752.25
2022-10-05T03:36:27.370Z,100752.75
2022-10-05T03:39:12.952Z,100746.59
2022-10-05T03:41:58.493Z,100755.69
2022-10-05T03:44:39.554Z,100761.19
2022-10-05T03:47:25.370Z,100767.34
2022-10-05T03:50:11.877Z,100771.72
2022-10-05T03:52:44.313Z,100777.06
2022-10-05T03:55:39.159Z,100781.41
2022-10-05T03:58:13.959Z,100778.06
2022-10-05T04:00:44.952Z,100779.78
2022-10-05T04:03:23.199Z,100781.59
2022-10-05T04:05:55.210Z,100785.16
2022-10-05T04:08:48.217Z,100784.34
2022-10-05T04:11:24.005Z,100791.09
2022-10-05T04:14:26.830Z,100786.69
2022-10-05T04:17:01.426Z,100790.34
2022-10-05T04:19:44.645Z,100790.44
2022-10-05T04:22:35.042Z,100791.53
2022-10-05T04:25:19.886Z,100789.06
2022-10-05T04:28:00.732Z,100790.94
2022-10-05T04:30:27.275Z,100784.94
2022-10-05T04:32:59.252Z,100777.91
2022-10-05T04:35:52.451Z,100796.09
2022-10-05T04:38:35.077Z,100785.84
2022-10-05T04:41:14.611Z,100791.91
2022-10-05T04:44:07.078Z,100798.00
2022-10-05T04:47:02.109Z,100790.19
2022-10-05T04:49:51.038Z,100797.31
2022-10-05T04:52:33.172Z,100795.59
2022-10-05T04:55:22.432Z,100793.06
2022-10-05T04:57:51.893Z,100800.00
2022-10-05T05:00:23.165Z,100800.19
2022-10-05T05:02:56.683Z,100793.28
2022-10-05T05:06:18.372Z,100796.84
2022-10-05T05:09:20.843Z,100799.59
2022-10-05T05:12:09.546Z,100798.75
2022-10-05T05:14:37.300Z,100803.03
2022-10-05T05:18:12.308Z,100808.25
2022-10-05T05:21:11.505Z,100808.28
2022-10-05T05:23:50.137Z,100810.84
2022-10-05T05:26:32.770Z,100815.44
2022-10-05T05:29:02.014Z,100825.84
2022-10-05T05:31:43.706Z,100834.47
2022-10-05T05:34:56.298Z,100829.38
2022-10-05T05:37:52.008Z,100838.97
2022-10-05T05:40:33.138Z,100840.88
2022-10-05T05:43:07.043Z,100843.38
2022-10-05T05:45:41.767Z,100851.91
2022-10-05T05:48:23.215Z,100857.13
2022-10-05T05:51:13.460Z,100864.06
2022-10-05T05:53:44.480Z,100865.84
2022-10-05T05:56:14.630Z,100859.72
2022-10-05T05:58:53.437Z,100866.66
2022-10-05T06:01:33.188Z,100862.34
2022-10-05T06:04:11.839Z,100866.75
2022-10-05T06:06:44.821Z,100872.13
2022-10-05T06:09:28.709Z,100870.19
2022-10-05T06:12:22.484Z,100868.19
2022-10-05T06:14:56.605Z,100868.31
2022-10-05T06:17:32.665Z,100869.06
2022-10-05T06:20:05.502Z,100875.13
2022-10-05T06:22:38.705Z,100874.91
2022-10-05T06:25:14.980Z,100876.63
2022-10-05T06:28:12.258Z,100869.56
2022-10-05T06:31:17.448Z,100880.63
2022-10-05T06:33:53.706Z,100876.84
2022-10-05T06:36:28.803Z,100878.47
2022-10-05T06:39:27.551Z,100875.91
2022-10-05T06:42:13.543Z,100874.75
2022-10-05T06:45:21.332Z,100873.66
2022-10-05T06:48:25.354Z,100880.41
2022-10-05T06:51:34.232Z,100880.84
2022-10-05T06:54:36.766Z,100877.69
2022-10-05T06:57:13.832Z,100879.84
2022-10-05T06:59:59.065Z,100873.31
2022-10-05T07:02:45.269Z,100871.09
2022-10-05T07:05:24.702Z,100870.59
2022-10-05T07:07:59.440Z,100863.75
2022-10-05T07:10:33.771Z,100855.59
2022-10-05T07:13:23.312Z,100849.50
2022-10-05T07:16:25.685Z,100852.63
2022-10-05T07:19:07.491Z,100856.09
2022-10-05T07:21:48.944Z,100845.69
2022-10-05T07:24:29.053Z,100853.66
2022-10-05T07:27:02.107Z,100857.19
2022-10-05T07:29:37.586Z,100855.31
2022-10-05T07:32:24.281Z,100858.44
2022-10-05T07:35:00.697Z,100853.13
2022-10-05T07:37:57.282Z,100856.78
2022-10-05T07:40:56.440Z,100849.56
2022-10-05T07:44:03.325Z,100856.31
2022-10-05T07:46:50.055Z,100862.75
2022-10-05T07:49:30.940Z,100859.97
2022-10-05T07:52:00.781Z,100860.84
2022-10-05T07:54:49.376Z,100868.25
2022-10-05T07:57:18.863Z,100858.16
2022-10-05T08:00:07.517Z,100861.09
2022-10-05T08:02:52.882Z,100872.56
2022-10-05T08:05:28.807Z,100866.66
2022-10-05T08:08:11.637Z,100858.19
2022-10-05T08:10:49.316Z,100865.50
2022-10-05T08:13:22.388Z,100869.59
2022-10-05T08:15:53.997Z,100866.72
2022-10-05T08:18:26.012Z,100857.53
2022-10-05T08:20:57.059Z,100862.94
2022-10-05T08:23:36.840Z,100841.88
2022-10-05T08:26:17.661Z,100855.56
2022-10-05T08:29:13.731Z,100846.69
2022-10-05T08:31:45.444Z,100845.66
2022-10-05T08:34:45.683Z,100843.13
2022-10-05T08:37:29.050Z,100841.41
2022-10-05T08:40:41.837Z,100843.88
2022-10-05T08:43:25.340Z,100836.78
2022-10-05T08:46:26.251Z,100837.41
2022-10-05T08:49:11.924Z,100839.56
2022-10-05T08:51:54.051Z,100845.66
2022-10-05T08:54:38.764Z,100849.47
2022-10-05T08:57:23.477Z,100855.03
2022-10-05T09:00:05.834Z,100840.06
2022-10-05T09:02:52.490Z,100844.91
2022-10-05T09:05:48.621Z,100846.69
2022-10-05T09:08:29.700Z,100851.00
2022-10-05T09:11:11.234Z,100839.41
2022-10-05T09:14:02.160Z,100830.47
2022-10-05T09:17:07.313Z,100831.91
2022-10-05T09:19:58.547Z,100831.72
2022-10-05T09:22:38.215Z,100834.25
2022-10-05T09:25:35.481Z,100837.59
2022-10-05T09:28:21.113Z,100839.91
2022-10-05T09:30:56.883Z,100837.00
2022-10-05T09:34:05.094Z,100844.47
2022-10-05T09:37:04.852Z,100843.13
2022-10-05T09:39:50.305Z,100833.94
2022-10-05T09:42:44.345Z,100835.50
2022-10-05T09:45:55.291Z,100835.66
2022-10-05T09:48:31.485Z,100841.44
2022-10-05T09:51:21.535Z,100835.00
2022-10-05T09:54:03.597Z,100823.22
2022-10-05T09:57:05.140Z,100824.44
2022-10-05T09:59:59.899Z,100825.28
2022-10-05T10:02:50.091Z,100819.97
2022-10-05T10:05:30.132Z,100818.09
2022-10-05T10:08:22.123Z,100804.19
2022-10-05T10:11:11.269Z,100804.41
2022-10-05T10:14:13.869Z,100818.81
2022-10-05T10:16:50.435Z,100805.34
2022-10-05T10:19:35.255Z,100809.78
2022-10-05T10:22:17.043Z,100801.19
2022-10-05T10:25:19.336Z,100804.69
2022-10-05T10:27:56.084Z,100806.25
2022-10-05T10:30:53.824Z,100803.06
2022-10-05T10:33:59.307Z,100801.38
2022-10-05T10:36:44.501Z,100804.03
2022-10-05T10:39:33.640Z,100792.19
2022-10-05T10:42:06.951Z,100799.44
2022-10-05T10:45:04.556Z,100789.19
2022-10-05T10:47:43.632Z,100797.75
2022-10-05T10:50:42.623Z,100791.25
2022-10-05T10:53:29.586Z,100782.97
2022-10-05T10:56:08.604Z,100780.03
2022-10-05T10:59:12.907Z,100773.16
2022-10-05T11:01:57.665Z,100782.91
2022-10-05T11:04:56.697Z,100778.44
2022-10-05T11:07:36.842Z,100772.22
2022-10-05T11:10:03.216Z,100767.88
2022-10-05T11:12:50.001Z,100768.44
2022-10-05T11:15:34.872Z,100774.97
2022-10-05T11:18:04.568Z,100764.00
2022-10-05T11:21:09.419Z,100766.91
2022-10-05T11:24:06.605Z,100759.44
2022-10-05T11:26:53.449Z,100759.72
2022-10-05T11:29:41.566Z,100769.25
2022-10-05T11:32:17.335Z,100761.19
2022-10-05T11:34:58.915Z,100752.09
2022-10-05T11:37:38.152Z,100770.94
2022-10-05T11:40:43.007Z,100751.53
2022-10-05T11:43:31.341Z,100750.22
2022-10-05T11:46:16.013Z,100737.41
2022-10-05T11:48:54.085Z,100737.59
2022-10-05T11:51:38.204Z,100731.44
2022-10-05T11:54:25.189Z,100720.00
2022-10-05T11:57:03.987Z,100724.03
2022-10-05T11:59:34.952Z,100710.09
2022-10-05T12:02:43.662Z,100705.41
2022-10-05T12:05:21.381Z,100704.34
2022-10-05T12:07:54.147Z,100702.78
2022-10-05T12:10:47.509Z,100701.06
2022-10-05T12:13:38.781Z,100692.66
2022-10-05T12:16:28.918Z,100691.41
2022-10-05T12:19:29.663Z,100689.56
2022-10-05T12:22:15.322Z,100692.09
2022-10-05T12:24:45.397Z,100681.56
2022-10-05T12:27:17.089Z,100681.25
2022-10-05T12:29:46.722Z,100682.44
2022-10-05T12:32:18.316Z,100680.91
2022-10-05T12:35:05.211Z,100682.84
2022-10-05T12:37:51.647Z,100677.13
2022-10-05T12:40:43.360Z,100668.19
2022-10-05T12:43:32.241Z,100658.66
2022-10-05T12:46:07.775Z,100661.19
2022-10-05T12:48:56.142Z,100663.44
2022-10-05T12:51:37.696Z,100659.63
2022-10-05T12:54:29.107Z,100667.53
2022-10-05T12:57:01.846Z,100661.25
2022-10-05T12:59:35.542Z,100654.88
2022-10-05T13:02:25.776Z,100657.78
2022-10-05T13:05:10.624Z,100659.69
2022-10-05T13:07:58.902Z,100659.00
2022-10-05T13:10:41.504Z,100652.09
2022-10-05T13:13:47.265Z,100657.72
2022-10-05T13:16:19.717Z,100652.53
2022-10-05T13:19:25.856Z,100644.59
2022-10-05T13:22:14.181Z,100646.66
2022-10-05T13:24:54.212Z,100649.09
2022-10-05T13:27:23.582Z,100653.38
2022-10-05T13:30:13.322Z,100645.44
2022-10-05T13:32:50.016Z,100628.75
2022-10-05T13:36:04.346Z,100635.69
2022-10-05T13:38:39.803Z,100616.66
2022-10-05T13:41:43.947Z,100632.75
2022-10-05T13:44:36.110Z,100623.44
2022-10-05T13:47:21.679Z,100618.59
2022-10-05T13:49:57.784Z,100617.38
2022-10-05T13:52:37.180Z,100622.59
2022-10-05T13:55:24.983Z,100620.22
2022-10-05T13:57:55.061Z,100616.03
2022-10-05T14:00:26.606Z,100613.34
2022-10-05T14:02:56.630Z,100622.53
2022-10-05T14:05:31.442Z,100610.75
2022-10-05T14:08:16.076Z,100608.13
2022-10-05T14:10:45.609Z,100610.91
2022-10-05T14:13:34.235Z,100595.25
2022-10-05T14:16:13.849Z,100593.53
2022-10-05T14:18:53.742Z,100589.38
2022-10-05T14:21:26.352Z,100599.84
2022-10-05T14:23:53.343Z,100602.19
2022-10-05T14:26:25.793Z,100595.22
2022-10-05T14:29:15.825Z,100596.97
2022-10-05T14:32:14.863Z,100600.44
2022-10-05T14:34:45.550Z,100593.66
2022-10-05T14:37:25.060Z,100593.09
2022-10-05T14:39:57.251Z,100600.56
2022-10-05T14:42:30.221Z,100589.50
2022-10-05T14:45:12.827Z,100581.75
2022-10-05T14:48:10.218Z,100588.34
2022-10-05T14:50:51.979Z,100590.91
2022-10-05T14:53:21.656Z,100588.31
2022-10-05T14:56:03.291Z,100580.06
2022-10-05T14:59:01.045Z,100577.34
2022-10-05T15:01:34.951Z,100585.03
2022-10-05T15:04:29.280Z,100579.88
2022-10-05T15:07:12.955Z,100573.41
2022-10-05T15:10:02.920Z,100579.28
2022-10-05T15:12:32.516Z,100582.63
2022-10-05T15:15:39.608Z,100585.66
2022-10-05T15:18:15.842Z,100582.34
2022-10-05T15:21:26.268Z,100582.19
2022-10-05T15:24:15.809Z,100586.91
2022-10-05T15:26:54.509Z,100580.56
2022-10-05T15:29:52.476Z,100586.06
2022-10-05T15:32:25.352Z,100574.88
2022-10-05T15:35:24.427Z,100577.41
2022-10-05T15:37:59.684Z,100575.16
2022-10-05T15:40:36.807Z,100568.84
2022-10-05T15:43:11.424Z,100568.00
2022-10-05T15:45:57.214Z,100574.38
2022-10-05T15:48:49.669Z,100564.41
2022-10-05T15:51:40.545Z,100563.13
2022-10-05T15:54:40.882Z,100566.28
2022-10-05T15:57:35.756Z,100570.09
2022-10-05T16:00:19.042Z,100573.22
2022-10-05T16:03:21.426Z,100578.97
2022-10-05T16:06:11.022Z,100566.38
2022-10-05T16:08:55.774Z,100562.91
2022-10-05T16:11:47.613Z,100565.31
2022-10-05T16:14:30.080Z,100552.44
2022-10-05T16:17:11.808Z,100556.06
2022-10-05T16:19:56.903Z,100550.34
2022-10-05T16:22:32.988Z,100558.38
2022-10-05T16:25:22.107Z,100559.88
2022-10-05T16:28:11.574Z,100561.91
2022-10-05T16:31:02.581Z,100562.03
2022-10-05T16:33:52.975Z,100568.56
2022-10-05T16:36:47.405Z,100573.13
2022-10-05T16:39:33.308Z,100573.38
2022-10-05T16:42:17.256Z,100572.75
2022-10-05T16:44:51.380Z,100574.47
2022-10-05T16:47:34.540Z,100581.03
2022-10-05T16:50:18.769Z,100585.50
2022-10-05T16:52:52.092Z,100587.31
2022-10-05T16:55:26.839Z,100591.66
2022-10-05T16:57:56.873Z,100598.31
2022-10-05T17:00:53.616Z,100607.38
2022-10-05T17:03:29.985Z,100607.91
2022-10-05T17:06:18.871Z,100613.72
2022-10-05T17:09:16.115Z,100615.06
2022-10-05T17:11:55.461Z,100621.81
2022-10-05T17:14:46.776Z,100619.06
2022-10-05T17:17:21.324Z,100626.84
2022-10-05T17:19:55.578Z,100626.00
2022-10-05T17:22:28.886Z,100629.00
2022-10-05T17:25:22.261Z,100628.00
2022-10-05T17:28:14.996Z,100628.31
2022-10-05T17:30:54.285Z,100640.34
2022-10-05T17:33:30.499Z,100642.16
2022-10-05T17:36:03.090Z,100643.84
2022-10-05T17:38:34.033Z,100644.09
2022-10-05T17:41:00.748Z,100647.69
2022-10-05T17:43:30.824Z,100655.66
2022-10-05T17:46:00.810Z,100651.34
2022-10-05T17:48:49.129Z,100660.47
2022-10-05T17:51:48.030Z,100674.28
2022-10-05T17:54:41.635Z,100678.75
2022-10-05T17:57:07.981Z,100684.31
2022-10-05T17:59:44.819Z,100689.41
2022-10-05T18:02:36.804Z,100689.63
2022-10-05T18:05:06.696Z,100691.31
2022-10-05T18:07:37.796Z,100697.97
2022-10-05T18:10:13.199Z,100699.69
2022-10-05T18:12:44.936Z,100709.41
2022-10-05T18:15:44.744Z,100712.59
2022-10-05T18:18:32.539Z,100721.81
2022-10-05T18:21:05.244Z,100716.72
2022-10-05T18:23:36.216Z,100726.25
2022-10-05T18:26:20.288Z,100730.38
2022-10-05T18:29:14.171Z,100736.94
2022-10-05T18:31:55.143Z,100737.22
2022-10-05T18:34:27.120Z,100743.16
2022-10-05T18:37:07.139Z,100744.97
2022-10-05T18:39:39.805Z,100745.81
2022-10-05T18:42:13.547Z,100757.44
2022-10-05T18:44:45.591Z,100752.38
2022-10-05T18:47:19.396Z,100762.44
2022-10-05T18:50:04.856Z,100770.06
2022-10-05T18:52:49.422Z,100767.91
2022-10-05T18:55:23.898Z,100774.47
2022-10-05T18:58:28.528Z,100779.84
2022-10-05T19:01:26.772Z,100779.19
2022-10-05T19:04:27.433Z,100784.16
2022-10-05T19:06:59.694Z,100776.72
2022-10-05T19:10:01.502Z,100779.47
2022-10-05T19:12:46.974Z,100789.41
2022-10-05T19:15:35.763Z,100796.56
2022-10-05T19:18:23.526Z,100799.22
2022-10-05T19:21:28.499Z,100806.97
2022-10-05T19:24:18.179Z,100803.66
2022-10-05T19:27:07.144Z,100811.72
2022-10-05T19:29:51.839Z,100825.56
2022-10-05T19:32:44.702Z,100820.59
2022-10-05T19:35:33.264Z,100822.00
2022-10-05T19:38:27.013Z,100828.03
2022-10-05T19:41:16.660Z,100829.47
2022-10-05T19:44:02.592Z,100824.84
2022-10-05T19:46:52.484Z,100835.31
2022-10-05T19:49:36.660Z,100828.63
2022-10-05T19:52:10.748Z,100831.16
2022-10-05T19:54:37.784Z,100835.16
2022-10-05T19:57:16.910Z,100837.47
2022-10-05T19:59:47.659Z,100840.69
2022-10-05T20:02:16.813Z,100843.53
2022-10-05T20:04:45.698Z,100847.97
2022-10-05T20:07:15.103Z,100861.16
2022-10-05T20:09:59.180Z,100872.59
2022-10-05T20:12:52.001Z,100865.59
2022-10-05T20:15:39.693Z,100873.72
2022-10-05T20:18:53.750Z,100871.09
2022-10-05T20:21:51.038Z,100885.66
2022-10-05T20:24:51.156Z,100885.66
2022-10-05T20:27:55.367Z,100894.69
2022-10-05T20:30:27.435Z,100893.47
2022-10-05T20:33:09.120Z,100906.41
2022-10-05T20:35:35.626Z,100900.28
2022-10-05T20:38:02.079Z,100903.66
2022-10-05T20:40:29.978Z,100903.66
2022-10-05T20:42:57.596Z,100903.47
2022-10-05T20:45:24.585Z,100913.84
2022-10-05T20:47:51.125Z,100908.56
2022-10-05T20:50:17.825Z,100923.03
2022-10-05T20:52:44.589Z,100922.09
2022-10-05T20:55:12.102Z,100923.78
2022-10-05T20:57:41.896Z,100932.66
2022-10-05T21:00:13.221Z,100938.13
2022-10-05T21:02:39.892Z,100940.09
2022-10-05T21:05:07.610Z,100941.03
2022-10-05T21:07:35.370Z,100941.22
2022-10-05T21:10:03.854Z,100941.22
2022-10-05T21:12:30.769Z,100948.56
2022-10-05T21:14:59.106Z,100950.66
2022-10-05T21:17:25.518Z,100951.19
2022-10-05T21:19:52.554Z,100954.03
2022-10-05T21:22:19.225Z,100950.75
2022-10-05T21:24:45.773Z,100951.19
2022-10-05T21:27:12.887Z,100954.59
2022-10-05T21:29:41.143Z,100960.63
2022-10-05T21:32:11.581Z,100957.31
2022-10-05T21:34:39.932Z,100971.44
2022-10-05T21:37:07.438Z,100972.03
2022-10-05T21:39:34.996Z,100973.81
2022-10-05T21:42:01.948Z,100977.72
2022-10-05T21:44:28.414Z,100976.34
2022-10-05T21:46:56.702Z,100986.16
2022-10-05T21:49:24.313Z,100985.59
2022-10-05T21:51:50.995Z,100993.59
2022-10-05T21:54:21.015Z,100987.03
2022-10-05T21:56:51.338Z,100990.03
2022-10-05T21:59:19.475Z,100992.19
2022-10-05T22:01:46.486Z,100993.13
2022-10-05T22:04:13.837Z,100998.03
2022-10-05T22:06:41.171Z,100996.44
2022-10-05T22:09:07.682Z,100998.56
2022-10-05T22:11:34.158Z,101006.38
2022-10-05T22:14:03.663Z,101011.00
2022-10-05T22:16:33.094Z,101013.72
2022-10-05T22:19:05.119Z,101018.22
2022-10-05T22:21:34.271Z,101009.09
2022-10-05T22:24:03.149Z,101019.16
2022-10-05T22:26:30.127Z,101027.22
2022-10-05T22:28:57.681Z,101028.00
2022-10-05T22:31:24.224Z,101034.44
2022-10-05T22:33:51.152Z,101035.13
2022-10-05T22:36:18.704Z,101029.09
2022-10-05T22:38:47.367Z,101040.72
2022-10-05T22:41:14.866Z,101041.13
2022-10-05T22:43:42.055Z,101044.47
2022-10-05T22:46:12.675Z,101046.88
2022-10-05T22:48:40.141Z,101043.63
2022-10-05T22:51:07.741Z,101039.75
2022-10-05T22:53:35.098Z,101041.38
2022-10-05T22:56:10.644Z,101038.84
2022-10-05T22:58:38.297Z,101041.13
2022-10-05T23:01:07.339Z,101035.06
2022-10-05T23:03:34.112Z,101040.25
2022-10-05T23:06:10.377Z,101038.91
2022-10-05T23:08:38.955Z,101031.13
2022-10-05T23:11:11.353Z,101033.06
2022-10-05T23:13:38.729Z,101024.16
2022-10-05T23:16:07.896Z,101033.56
2022-10-05T23:18:34.735Z,101029.53
2022-10-05T23:21:01.238Z,101031.88
2022-10-05T23:23:28.035Z,101042.16
2022-10-05T23:26:05.887Z,101047.81
2022-10-05T23:28:33.603Z,101048.53
2022-10-05T23:31:02.152Z,101053.00
2022-10-05T23:33:28.856Z,101061.16
2022-10-05T23:36:06.213Z,101061.84
2022-10-05T23:38:34.762Z,101067.91
2022-10-05T23:41:02.485Z,101066.19
2022-10-05T23:43:29.995Z,101069.63
2022-10-05T23:45:57.170Z,101068.03
2022-10-05T23:48:25.018Z,101065.56
2022-10-05T23:50:51.956Z,101074.03
2022-10-05T23:53:19.278Z,101071.69
2022-10-05T23:55:46.002Z,101074.09
2022-10-05T23:58:12.656Z,101075.88
